<?xml version="1.0" encoding="UTF-8"?><gpx version="1.1" creator="Relive" xmlns="http://www.topografix.com/GPX/1/1" xmlns:xsi="http://www.w3.org/2001/XMLSchema-instance" xsi:schemaLocation="http://www.topografix.com/GPX/1/1 http://www.topografix.com/GPX/1/1/gpx.xsd http://www.garmin.com/xmlschemas/TrackPointExtension/v1 http://www.garmin.com/xmlschemas/TrackPointExtensionv1.xsd http://www.garmin.com/xmlschemas/GpxExtensions/v3 http://www.garmin.com/xmlschemas/GpxExtensionsv3.xsd" xmlns:gpxtpx="http://www.garmin.com/xmlschemas/TrackPointExtension/v1" xmlns:gpxx="http://www.garmin.com/xmlschemas/GpxExtensions/v3"><metadata><time>2023-07-10T09:35:05.000Z</time><name>Štrkač-Belansky aj sa slape</name></metadata><trk><trkseg><trkpt lat="48.727804" lon="17.535266"><time>2023-07-10T09:35:05.000Z</time><ele>499.1</ele></trkpt><trkpt lat="48.727852" lon="17.535231"><time>2023-07-10T09:35:21.000Z</time><ele>497.98</ele></trkpt><trkpt lat="48.727895" lon="17.535193"><time>2023-07-10T09:35:23.000Z</time><ele>496.21</ele></trkpt><trkpt lat="48.727933" lon="17.535235"><time>2023-07-10T09:35:27.000Z</time><ele>494.38</ele></trkpt><trkpt lat="48.72793" lon="17.535328"><time>2023-07-10T09:35:30.000Z</time><ele>492.63</ele></trkpt><trkpt lat="48.727975" lon="17.535354"><time>2023-07-10T09:35:32.000Z</time><ele>490.58</ele></trkpt><trkpt lat="48.728034" lon="17.535335"><time>2023-07-10T09:35:34.000Z</time><ele>488.2</ele></trkpt><trkpt lat="48.728088" lon="17.535333"><time>2023-07-10T09:35:37.000Z</time><ele>486.95</ele></trkpt><trkpt lat="48.728126" lon="17.535292"><time>2023-07-10T09:35:39.000Z</time><ele>485.74</ele></trkpt><trkpt lat="48.728189" lon="17.535218"><time>2023-07-10T09:35:42.000Z</time><ele>486.74</ele></trkpt><trkpt lat="48.72823" lon="17.53517"><time>2023-07-10T09:35:44.000Z</time><ele>485.79</ele></trkpt><trkpt lat="48.728279" lon="17.535103"><time>2023-07-10T09:35:46.000Z</time><ele>485.7</ele></trkpt><trkpt lat="48.728302" lon="17.535042"><time>2023-07-10T09:35:47.000Z</time><ele>485.21</ele></trkpt><trkpt lat="48.728373" lon="17.534764"><time>2023-07-10T09:35:51.000Z</time><ele>484.1</ele></trkpt><trkpt lat="48.72839" lon="17.534682"><time>2023-07-10T09:35:52.000Z</time><ele>482.81</ele></trkpt><trkpt lat="48.728442" lon="17.53454"><time>2023-07-10T09:35:54.000Z</time><ele>479.35</ele></trkpt><trkpt lat="48.728459" lon="17.534476"><time>2023-07-10T09:35:55.000Z</time><ele>479.42</ele></trkpt><trkpt lat="48.72846" lon="17.534403"><time>2023-07-10T09:35:56.000Z</time><ele>475.71</ele></trkpt><trkpt lat="48.728481" lon="17.534283"><time>2023-07-10T09:35:58.000Z</time><ele>476.16</ele></trkpt><trkpt lat="48.728534" lon="17.534216"><time>2023-07-10T09:36:00.000Z</time><ele>474.68</ele></trkpt><trkpt lat="48.728611" lon="17.534089"><time>2023-07-10T09:36:02.000Z</time><ele>476.81</ele></trkpt><trkpt lat="48.728651" lon="17.534036"><time>2023-07-10T09:36:03.000Z</time><ele>477.97</ele></trkpt><trkpt lat="48.728686" lon="17.53399"><time>2023-07-10T09:36:04.000Z</time><ele>478.23</ele></trkpt><trkpt lat="48.728723" lon="17.533863"><time>2023-07-10T09:36:06.000Z</time><ele>478.47</ele></trkpt><trkpt lat="48.728745" lon="17.533755"><time>2023-07-10T09:36:08.000Z</time><ele>478.25</ele></trkpt><trkpt lat="48.728737" lon="17.533598"><time>2023-07-10T09:36:10.000Z</time><ele>476.44</ele></trkpt><trkpt lat="48.728712" lon="17.53353"><time>2023-07-10T09:36:11.000Z</time><ele>477.21</ele></trkpt><trkpt lat="48.728683" lon="17.533468"><time>2023-07-10T09:36:12.000Z</time><ele>475.6</ele></trkpt><trkpt lat="48.728649" lon="17.533354"><time>2023-07-10T09:36:14.000Z</time><ele>476.88</ele></trkpt><trkpt lat="48.728596" lon="17.533203"><time>2023-07-10T09:36:16.000Z</time><ele>474.98</ele></trkpt><trkpt lat="48.728589" lon="17.533135"><time>2023-07-10T09:36:17.000Z</time><ele>473.73</ele></trkpt><trkpt lat="48.728646" lon="17.533015"><time>2023-07-10T09:36:19.000Z</time><ele>468.73</ele></trkpt><trkpt lat="48.728675" lon="17.532937"><time>2023-07-10T09:36:20.000Z</time><ele>467.25</ele></trkpt><trkpt lat="48.728705" lon="17.532835"><time>2023-07-10T09:36:22.000Z</time><ele>468.5</ele></trkpt><trkpt lat="48.728721" lon="17.532722"><time>2023-07-10T09:36:24.000Z</time><ele>466.11</ele></trkpt><trkpt lat="48.728769" lon="17.532548"><time>2023-07-10T09:36:26.000Z</time><ele>464.06</ele></trkpt><trkpt lat="48.728784" lon="17.532477"><time>2023-07-10T09:36:27.000Z</time><ele>464.38</ele></trkpt><trkpt lat="48.72879" lon="17.532389"><time>2023-07-10T09:36:28.000Z</time><ele>463.37</ele></trkpt><trkpt lat="48.728771" lon="17.532316"><time>2023-07-10T09:36:29.000Z</time><ele>462.63</ele></trkpt><trkpt lat="48.728763" lon="17.532245"><time>2023-07-10T09:36:31.000Z</time><ele>464.05</ele></trkpt><trkpt lat="48.728799" lon="17.532194"><time>2023-07-10T09:36:34.000Z</time><ele>465.51</ele></trkpt><trkpt lat="48.728836" lon="17.53215"><time>2023-07-10T09:36:40.000Z</time><ele>463.19</ele></trkpt><trkpt lat="48.728869" lon="17.532088"><time>2023-07-10T09:36:45.000Z</time><ele>458.56</ele></trkpt><trkpt lat="48.728894" lon="17.532017"><time>2023-07-10T09:36:47.000Z</time><ele>456.92</ele></trkpt><trkpt lat="48.728934" lon="17.531918"><time>2023-07-10T09:36:49.000Z</time><ele>456.17</ele></trkpt><trkpt lat="48.728964" lon="17.531806"><time>2023-07-10T09:36:51.000Z</time><ele>453.92</ele></trkpt><trkpt lat="48.728993" lon="17.531748"><time>2023-07-10T09:37:01.000Z</time><ele>454.52</ele></trkpt><trkpt lat="48.729044" lon="17.531685"><time>2023-07-10T09:37:04.000Z</time><ele>451.76</ele></trkpt><trkpt lat="48.729086" lon="17.531619"><time>2023-07-10T09:37:06.000Z</time><ele>451.78</ele></trkpt><trkpt lat="48.729117" lon="17.531553"><time>2023-07-10T09:37:08.000Z</time><ele>452.42</ele></trkpt><trkpt lat="48.729159" lon="17.531476"><time>2023-07-10T09:37:10.000Z</time><ele>452.58</ele></trkpt><trkpt lat="48.729205" lon="17.531404"><time>2023-07-10T09:37:13.000Z</time><ele>454.03</ele></trkpt><trkpt lat="48.729259" lon="17.531346"><time>2023-07-10T09:37:15.000Z</time><ele>454.37</ele></trkpt><trkpt lat="48.729283" lon="17.531274"><time>2023-07-10T09:37:17.000Z</time><ele>455.89</ele></trkpt><trkpt lat="48.729302" lon="17.531195"><time>2023-07-10T09:37:19.000Z</time><ele>457.33</ele></trkpt><trkpt lat="48.729357" lon="17.530952"><time>2023-07-10T09:37:23.000Z</time><ele>453.82</ele></trkpt><trkpt lat="48.729358" lon="17.530844"><time>2023-07-10T09:37:25.000Z</time><ele>453.35</ele></trkpt><trkpt lat="48.729334" lon="17.530782"><time>2023-07-10T09:37:32.000Z</time><ele>453.49</ele></trkpt><trkpt lat="48.729385" lon="17.530538"><time>2023-07-10T09:37:43.000Z</time><ele>453.73</ele></trkpt><trkpt lat="48.729389" lon="17.530441"><time>2023-07-10T09:37:45.000Z</time><ele>453.78</ele></trkpt><trkpt lat="48.729394" lon="17.530365"><time>2023-07-10T09:37:47.000Z</time><ele>452.6</ele></trkpt><trkpt lat="48.729373" lon="17.530277"><time>2023-07-10T09:37:49.000Z</time><ele>451.85</ele></trkpt><trkpt lat="48.729416" lon="17.530218"><time>2023-07-10T09:37:52.000Z</time><ele>449.75</ele></trkpt><trkpt lat="48.72946" lon="17.530186"><time>2023-07-10T09:37:54.000Z</time><ele>448.75</ele></trkpt><trkpt lat="48.729686" lon="17.529994"><time>2023-07-10T09:38:01.000Z</time><ele>441.88</ele></trkpt><trkpt lat="48.729712" lon="17.529886"><time>2023-07-10T09:38:03.000Z</time><ele>439.66</ele></trkpt><trkpt lat="48.729715" lon="17.529811"><time>2023-07-10T09:38:04.000Z</time><ele>438.56</ele></trkpt><trkpt lat="48.729654" lon="17.529558"><time>2023-07-10T09:38:07.000Z</time><ele>433.98</ele></trkpt><trkpt lat="48.729644" lon="17.529479"><time>2023-07-10T09:38:08.000Z</time><ele>434.11</ele></trkpt><trkpt lat="48.72964" lon="17.529405"><time>2023-07-10T09:38:09.000Z</time><ele>434.67</ele></trkpt><trkpt lat="48.729649" lon="17.529283"><time>2023-07-10T09:38:11.000Z</time><ele>432.69</ele></trkpt><trkpt lat="48.729661" lon="17.529144"><time>2023-07-10T09:38:13.000Z</time><ele>433.85</ele></trkpt><trkpt lat="48.729702" lon="17.529028"><time>2023-07-10T09:38:15.000Z</time><ele>434.19</ele></trkpt><trkpt lat="48.729747" lon="17.528918"><time>2023-07-10T09:38:17.000Z</time><ele>435.74</ele></trkpt><trkpt lat="48.729795" lon="17.528869"><time>2023-07-10T09:38:18.000Z</time><ele>435.46</ele></trkpt><trkpt lat="48.729832" lon="17.528824"><time>2023-07-10T09:38:19.000Z</time><ele>435.58</ele></trkpt><trkpt lat="48.729896" lon="17.528753"><time>2023-07-10T09:38:21.000Z</time><ele>435.89</ele></trkpt><trkpt lat="48.729951" lon="17.52869"><time>2023-07-10T09:38:23.000Z</time><ele>433.89</ele></trkpt><trkpt lat="48.730024" lon="17.528631"><time>2023-07-10T09:38:25.000Z</time><ele>432.86</ele></trkpt><trkpt lat="48.730093" lon="17.528594"><time>2023-07-10T09:38:27.000Z</time><ele>432.96</ele></trkpt><trkpt lat="48.730183" lon="17.528563"><time>2023-07-10T09:38:29.000Z</time><ele>431.54</ele></trkpt><trkpt lat="48.730223" lon="17.528493"><time>2023-07-10T09:38:31.000Z</time><ele>433.41</ele></trkpt><trkpt lat="48.73027" lon="17.528442"><time>2023-07-10T09:38:33.000Z</time><ele>432.27</ele></trkpt><trkpt lat="48.730327" lon="17.528367"><time>2023-07-10T09:38:36.000Z</time><ele>433.2</ele></trkpt><trkpt lat="48.730371" lon="17.528333"><time>2023-07-10T09:38:38.000Z</time><ele>434.36</ele></trkpt><trkpt lat="48.730405" lon="17.528268"><time>2023-07-10T09:38:40.000Z</time><ele>430.6</ele></trkpt><trkpt lat="48.73043" lon="17.528179"><time>2023-07-10T09:38:42.000Z</time><ele>430.39</ele></trkpt><trkpt lat="48.730469" lon="17.528076"><time>2023-07-10T09:38:44.000Z</time><ele>429.36</ele></trkpt><trkpt lat="48.73053" lon="17.527901"><time>2023-07-10T09:38:47.000Z</time><ele>429.71</ele></trkpt><trkpt lat="48.730553" lon="17.527826"><time>2023-07-10T09:38:49.000Z</time><ele>431.33</ele></trkpt><trkpt lat="48.730604" lon="17.527675"><time>2023-07-10T09:38:52.000Z</time><ele>431.34</ele></trkpt><trkpt lat="48.730621" lon="17.527577"><time>2023-07-10T09:38:54.000Z</time><ele>430.54</ele></trkpt><trkpt lat="48.730651" lon="17.527496"><time>2023-07-10T09:38:56.000Z</time><ele>430.52</ele></trkpt><trkpt lat="48.730692" lon="17.527426"><time>2023-07-10T09:38:58.000Z</time><ele>427.65</ele></trkpt><trkpt lat="48.730697" lon="17.527344"><time>2023-07-10T09:39:00.000Z</time><ele>427.6</ele></trkpt><trkpt lat="48.730722" lon="17.527246"><time>2023-07-10T09:39:02.000Z</time><ele>428.32</ele></trkpt><trkpt lat="48.730754" lon="17.527164"><time>2023-07-10T09:39:04.000Z</time><ele>430.6</ele></trkpt><trkpt lat="48.730755" lon="17.527077"><time>2023-07-10T09:39:06.000Z</time><ele>431.35</ele></trkpt><trkpt lat="48.730761" lon="17.526949"><time>2023-07-10T09:39:09.000Z</time><ele>432.4</ele></trkpt><trkpt lat="48.730771" lon="17.526858"><time>2023-07-10T09:39:11.000Z</time><ele>432.38</ele></trkpt><trkpt lat="48.730785" lon="17.52677"><time>2023-07-10T09:39:13.000Z</time><ele>432.63</ele></trkpt><trkpt lat="48.730804" lon="17.526682"><time>2023-07-10T09:39:16.000Z</time><ele>435.58</ele></trkpt><trkpt lat="48.73081" lon="17.526592"><time>2023-07-10T09:39:19.000Z</time><ele>437.88</ele></trkpt><trkpt lat="48.730826" lon="17.52649"><time>2023-07-10T09:39:23.000Z</time><ele>437.76</ele></trkpt><trkpt lat="48.730825" lon="17.526421"><time>2023-07-10T09:39:25.000Z</time><ele>436.5</ele></trkpt><trkpt lat="48.730848" lon="17.526344"><time>2023-07-10T09:39:27.000Z</time><ele>438.49</ele></trkpt><trkpt lat="48.730886" lon="17.526288"><time>2023-07-10T09:39:30.000Z</time><ele>440.99</ele></trkpt><trkpt lat="48.730917" lon="17.526202"><time>2023-07-10T09:39:33.000Z</time><ele>442.89</ele></trkpt><trkpt lat="48.730941" lon="17.526138"><time>2023-07-10T09:39:35.000Z</time><ele>442.52</ele></trkpt><trkpt lat="48.730967" lon="17.526067"><time>2023-07-10T09:39:38.000Z</time><ele>443.53</ele></trkpt><trkpt lat="48.730989" lon="17.525999"><time>2023-07-10T09:39:41.000Z</time><ele>445.12</ele></trkpt><trkpt lat="48.731009" lon="17.525908"><time>2023-07-10T09:39:45.000Z</time><ele>449.08</ele></trkpt><trkpt lat="48.731018" lon="17.525829"><time>2023-07-10T09:39:47.000Z</time><ele>448.56</ele></trkpt><trkpt lat="48.731046" lon="17.525741"><time>2023-07-10T09:39:49.000Z</time><ele>447.3</ele></trkpt><trkpt lat="48.7311" lon="17.525716"><time>2023-07-10T09:39:52.000Z</time><ele>448.77</ele></trkpt><trkpt lat="48.731158" lon="17.525675"><time>2023-07-10T09:39:56.000Z</time><ele>449.1</ele></trkpt><trkpt lat="48.731209" lon="17.525679"><time>2023-07-10T09:39:58.000Z</time><ele>449.71</ele></trkpt><trkpt lat="48.731281" lon="17.525736"><time>2023-07-10T09:40:01.000Z</time><ele>452.28</ele></trkpt><trkpt lat="48.73132" lon="17.525692"><time>2023-07-10T09:40:04.000Z</time><ele>453.55</ele></trkpt><trkpt lat="48.73136" lon="17.525616"><time>2023-07-10T09:40:07.000Z</time><ele>452.29</ele></trkpt><trkpt lat="48.73138" lon="17.525544"><time>2023-07-10T09:40:10.000Z</time><ele>455.74</ele></trkpt><trkpt lat="48.731401" lon="17.525473"><time>2023-07-10T09:40:12.000Z</time><ele>453.13</ele></trkpt><trkpt lat="48.731423" lon="17.525412"><time>2023-07-10T09:40:14.000Z</time><ele>453.23</ele></trkpt><trkpt lat="48.731438" lon="17.525347"><time>2023-07-10T09:40:16.000Z</time><ele>454.74</ele></trkpt><trkpt lat="48.731465" lon="17.525257"><time>2023-07-10T09:40:19.000Z</time><ele>455.18</ele></trkpt><trkpt lat="48.731477" lon="17.525191"><time>2023-07-10T09:40:22.000Z</time><ele>455.92</ele></trkpt><trkpt lat="48.731485" lon="17.525098"><time>2023-07-10T09:40:25.000Z</time><ele>458</ele></trkpt><trkpt lat="48.73148" lon="17.525011"><time>2023-07-10T09:40:28.000Z</time><ele>460.08</ele></trkpt><trkpt lat="48.731471" lon="17.524917"><time>2023-07-10T09:40:31.000Z</time><ele>459.35</ele></trkpt><trkpt lat="48.731464" lon="17.524838"><time>2023-07-10T09:40:33.000Z</time><ele>458.95</ele></trkpt><trkpt lat="48.731514" lon="17.524779"><time>2023-07-10T09:40:35.000Z</time><ele>459.4</ele></trkpt><trkpt lat="48.731559" lon="17.524755"><time>2023-07-10T09:40:41.000Z</time><ele>457.54</ele></trkpt><trkpt lat="48.731612" lon="17.524747"><time>2023-07-10T09:40:45.000Z</time><ele>456.13</ele></trkpt><trkpt lat="48.731867" lon="17.52465"><time>2023-07-10T09:40:54.000Z</time><ele>450.22</ele></trkpt><trkpt lat="48.731945" lon="17.524656"><time>2023-07-10T09:40:56.000Z</time><ele>450.2</ele></trkpt><trkpt lat="48.732325" lon="17.524365"><time>2023-07-10T09:41:06.000Z</time><ele>448.67</ele></trkpt><trkpt lat="48.732402" lon="17.52433"><time>2023-07-10T09:41:08.000Z</time><ele>446.65</ele></trkpt><trkpt lat="48.732447" lon="17.524316"><time>2023-07-10T09:41:10.000Z</time><ele>448.07</ele></trkpt><trkpt lat="48.732494" lon="17.524305"><time>2023-07-10T09:41:12.000Z</time><ele>449.09</ele></trkpt><trkpt lat="48.732538" lon="17.524264"><time>2023-07-10T09:41:14.000Z</time><ele>450.01</ele></trkpt><trkpt lat="48.73258" lon="17.524239"><time>2023-07-10T09:41:16.000Z</time><ele>450.47</ele></trkpt><trkpt lat="48.73265" lon="17.524195"><time>2023-07-10T09:41:18.000Z</time><ele>448.84</ele></trkpt><trkpt lat="48.732702" lon="17.524156"><time>2023-07-10T09:41:20.000Z</time><ele>448.23</ele></trkpt><trkpt lat="48.732734" lon="17.524094"><time>2023-07-10T09:41:22.000Z</time><ele>447.86</ele></trkpt><trkpt lat="48.732771" lon="17.524015"><time>2023-07-10T09:41:24.000Z</time><ele>447.29</ele></trkpt><trkpt lat="48.732808" lon="17.523949"><time>2023-07-10T09:41:26.000Z</time><ele>448.57</ele></trkpt><trkpt lat="48.732852" lon="17.523889"><time>2023-07-10T09:41:29.000Z</time><ele>448.26</ele></trkpt><trkpt lat="48.73287" lon="17.523825"><time>2023-07-10T09:41:31.000Z</time><ele>450.19</ele></trkpt><trkpt lat="48.732906" lon="17.52378"><time>2023-07-10T09:41:34.000Z</time><ele>449.98</ele></trkpt><trkpt lat="48.732969" lon="17.523787"><time>2023-07-10T09:41:39.000Z</time><ele>448.31</ele></trkpt><trkpt lat="48.733021" lon="17.523799"><time>2023-07-10T09:41:41.000Z</time><ele>447.23</ele></trkpt><trkpt lat="48.733066" lon="17.523817"><time>2023-07-10T09:41:43.000Z</time><ele>448.32</ele></trkpt><trkpt lat="48.733119" lon="17.523831"><time>2023-07-10T09:41:45.000Z</time><ele>448.04</ele></trkpt><trkpt lat="48.733196" lon="17.523845"><time>2023-07-10T09:41:48.000Z</time><ele>447.17</ele></trkpt><trkpt lat="48.733251" lon="17.523876"><time>2023-07-10T09:41:50.000Z</time><ele>443.3</ele></trkpt><trkpt lat="48.733302" lon="17.523922"><time>2023-07-10T09:41:52.000Z</time><ele>442.2</ele></trkpt><trkpt lat="48.733369" lon="17.523976"><time>2023-07-10T09:41:54.000Z</time><ele>440.25</ele></trkpt><trkpt lat="48.733427" lon="17.524"><time>2023-07-10T09:41:56.000Z</time><ele>439.2</ele></trkpt><trkpt lat="48.733511" lon="17.524008"><time>2023-07-10T09:41:58.000Z</time><ele>438.19</ele></trkpt><trkpt lat="48.733567" lon="17.524024"><time>2023-07-10T09:42:00.000Z</time><ele>435.34</ele></trkpt><trkpt lat="48.733618" lon="17.524066"><time>2023-07-10T09:42:02.000Z</time><ele>434.72</ele></trkpt><trkpt lat="48.733674" lon="17.524059"><time>2023-07-10T09:42:04.000Z</time><ele>433.36</ele></trkpt><trkpt lat="48.733718" lon="17.5241"><time>2023-07-10T09:42:06.000Z</time><ele>431.82</ele></trkpt><trkpt lat="48.733793" lon="17.524125"><time>2023-07-10T09:42:08.000Z</time><ele>428.31</ele></trkpt><trkpt lat="48.733846" lon="17.524115"><time>2023-07-10T09:42:10.000Z</time><ele>429.16</ele></trkpt><trkpt lat="48.733916" lon="17.524094"><time>2023-07-10T09:42:12.000Z</time><ele>428.8</ele></trkpt><trkpt lat="48.733977" lon="17.524064"><time>2023-07-10T09:42:14.000Z</time><ele>430.33</ele></trkpt><trkpt lat="48.734344" lon="17.523753"><time>2023-07-10T09:42:24.000Z</time><ele>421.17</ele></trkpt><trkpt lat="48.734359" lon="17.523681"><time>2023-07-10T09:42:26.000Z</time><ele>422.1</ele></trkpt><trkpt lat="48.734355" lon="17.523608"><time>2023-07-10T09:42:28.000Z</time><ele>420.82</ele></trkpt><trkpt lat="48.734344" lon="17.523538"><time>2023-07-10T09:42:30.000Z</time><ele>418.82</ele></trkpt><trkpt lat="48.734339" lon="17.52346"><time>2023-07-10T09:42:32.000Z</time><ele>420.8</ele></trkpt><trkpt lat="48.734334" lon="17.52338"><time>2023-07-10T09:42:35.000Z</time><ele>422.3</ele></trkpt><trkpt lat="48.734309" lon="17.523322"><time>2023-07-10T09:42:38.000Z</time><ele>424.19</ele></trkpt><trkpt lat="48.734242" lon="17.523306"><time>2023-07-10T09:42:41.000Z</time><ele>420.03</ele></trkpt><trkpt lat="48.734196" lon="17.523288"><time>2023-07-10T09:42:43.000Z</time><ele>419.36</ele></trkpt><trkpt lat="48.734128" lon="17.523279"><time>2023-07-10T09:42:46.000Z</time><ele>417.19</ele></trkpt><trkpt lat="48.734074" lon="17.523253"><time>2023-07-10T09:42:48.000Z</time><ele>416.12</ele></trkpt><trkpt lat="48.734025" lon="17.523205"><time>2023-07-10T09:42:50.000Z</time><ele>416.22</ele></trkpt><trkpt lat="48.733951" lon="17.523159"><time>2023-07-10T09:42:52.000Z</time><ele>417.5</ele></trkpt><trkpt lat="48.733879" lon="17.523086"><time>2023-07-10T09:42:54.000Z</time><ele>414.6</ele></trkpt><trkpt lat="48.733845" lon="17.523041"><time>2023-07-10T09:42:55.000Z</time><ele>415.05</ele></trkpt><trkpt lat="48.733807" lon="17.522946"><time>2023-07-10T09:42:57.000Z</time><ele>414.28</ele></trkpt><trkpt lat="48.733782" lon="17.522882"><time>2023-07-10T09:42:58.000Z</time><ele>415.53</ele></trkpt><trkpt lat="48.733758" lon="17.52282"><time>2023-07-10T09:42:59.000Z</time><ele>414.64</ele></trkpt><trkpt lat="48.733731" lon="17.522707"><time>2023-07-10T09:43:01.000Z</time><ele>413.42</ele></trkpt><trkpt lat="48.7337" lon="17.522629"><time>2023-07-10T09:43:03.000Z</time><ele>412.91</ele></trkpt><trkpt lat="48.733681" lon="17.522562"><time>2023-07-10T09:43:04.000Z</time><ele>411.33</ele></trkpt><trkpt lat="48.733587" lon="17.522365"><time>2023-07-10T09:43:07.000Z</time><ele>409.86</ele></trkpt><trkpt lat="48.73356" lon="17.522308"><time>2023-07-10T09:43:08.000Z</time><ele>409.78</ele></trkpt><trkpt lat="48.733526" lon="17.522196"><time>2023-07-10T09:43:10.000Z</time><ele>408.57</ele></trkpt><trkpt lat="48.733491" lon="17.5221"><time>2023-07-10T09:43:12.000Z</time><ele>407.49</ele></trkpt><trkpt lat="48.73344" lon="17.522022"><time>2023-07-10T09:43:14.000Z</time><ele>407.88</ele></trkpt><trkpt lat="48.733401" lon="17.521953"><time>2023-07-10T09:43:16.000Z</time><ele>408.14</ele></trkpt><trkpt lat="48.733378" lon="17.521887"><time>2023-07-10T09:43:18.000Z</time><ele>408.56</ele></trkpt><trkpt lat="48.733361" lon="17.521807"><time>2023-07-10T09:43:20.000Z</time><ele>407.74</ele></trkpt><trkpt lat="48.733364" lon="17.521727"><time>2023-07-10T09:43:22.000Z</time><ele>405.59</ele></trkpt><trkpt lat="48.733326" lon="17.521685"><time>2023-07-10T09:43:26.000Z</time><ele>404.56</ele></trkpt><trkpt lat="48.733336" lon="17.521602"><time>2023-07-10T09:43:34.000Z</time><ele>402.24</ele></trkpt><trkpt lat="48.733344" lon="17.521532"><time>2023-07-10T09:43:41.000Z</time><ele>401.98</ele></trkpt><trkpt lat="48.733394" lon="17.521571"><time>2023-07-10T09:43:44.000Z</time><ele>400.11</ele></trkpt><trkpt lat="48.733439" lon="17.521639"><time>2023-07-10T09:43:46.000Z</time><ele>399.84</ele></trkpt><trkpt lat="48.733486" lon="17.521664"><time>2023-07-10T09:43:50.000Z</time><ele>397.64</ele></trkpt><trkpt lat="48.733519" lon="17.521603"><time>2023-07-10T09:43:54.000Z</time><ele>397.19</ele></trkpt><trkpt lat="48.733547" lon="17.521542"><time>2023-07-10T09:44:11.000Z</time><ele>395.92</ele></trkpt><trkpt lat="48.733866" lon="17.521817"><time>2023-07-10T09:44:21.000Z</time><ele>392.52</ele></trkpt><trkpt lat="48.733916" lon="17.521836"><time>2023-07-10T09:44:23.000Z</time><ele>394.4</ele></trkpt><trkpt lat="48.733963" lon="17.521863"><time>2023-07-10T09:44:25.000Z</time><ele>394.36</ele></trkpt><trkpt lat="48.73401" lon="17.521886"><time>2023-07-10T09:44:28.000Z</time><ele>391.76</ele></trkpt><trkpt lat="48.73382" lon="17.52167"><time>2023-07-10T09:44:37.000Z</time><ele>390.24</ele></trkpt><trkpt lat="48.733773" lon="17.521639"><time>2023-07-10T09:44:39.000Z</time><ele>390.97</ele></trkpt><trkpt lat="48.733745" lon="17.521578"><time>2023-07-10T09:44:43.000Z</time><ele>389.83</ele></trkpt><trkpt lat="48.733748" lon="17.521505"><time>2023-07-10T09:44:57.000Z</time><ele>389.17</ele></trkpt><trkpt lat="48.733774" lon="17.521442"><time>2023-07-10T09:45:19.000Z</time><ele>390.93</ele></trkpt><trkpt lat="48.733823" lon="17.521395"><time>2023-07-10T09:45:23.000Z</time><ele>391.7</ele></trkpt><trkpt lat="48.73386" lon="17.521347"><time>2023-07-10T09:45:25.000Z</time><ele>392.01</ele></trkpt><trkpt lat="48.733899" lon="17.521258"><time>2023-07-10T09:45:27.000Z</time><ele>388.6</ele></trkpt><trkpt lat="48.73389" lon="17.521174"><time>2023-07-10T09:45:29.000Z</time><ele>387.58</ele></trkpt><trkpt lat="48.733883" lon="17.521105"><time>2023-07-10T09:45:32.000Z</time><ele>383.67</ele></trkpt><trkpt lat="48.733913" lon="17.521033"><time>2023-07-10T09:45:35.000Z</time><ele>381.46</ele></trkpt><trkpt lat="48.73396" lon="17.521008"><time>2023-07-10T09:45:37.000Z</time><ele>382.32</ele></trkpt><trkpt lat="48.73391" lon="17.520364"><time>2023-07-10T09:45:47.000Z</time><ele>370.91</ele></trkpt><trkpt lat="48.733904" lon="17.520096"><time>2023-07-10T09:45:51.000Z</time><ele>362.42</ele></trkpt><trkpt lat="48.73391" lon="17.519986"><time>2023-07-10T09:45:53.000Z</time><ele>361.89</ele></trkpt><trkpt lat="48.73391" lon="17.519986"><time>2023-07-10T09:45:53.001Z</time><ele>361.89</ele></trkpt></trkseg></trk></gpx>